Time;durP1;ratioP1;P1;durP2;ratioP2;P2;SDS_P1;SDS_P2;PMS_P1;PMS_P2;Temp;Humidity;BMP_temperature;BMP_pressure;BME280_temperature;BME280_humidity;BME280_pressure;Samples;Min_cycle;Max_cycle;Signal;HPM_P1;HPM_P2
2022/11/24 00:01:22;;;;;;;1999.90;999.90;;;13.10;99.90;;;;;;5072480;28;20116;-75
2022/11/24 00:03:59;;;;;;;1999.90;999.90;;;13.20;99.90;;;;;;5064980;28;20056;-75
2022/11/24 00:06:25;;;;;;;1999.90;999.90;;;13.10;99.90;;;;;;5052410;28;20283;-77
2022/11/24 00:08:51;;;;;;;1999.90;999.90;;;13.10;99.90;;;;;;5063794;28;20442;-79
2022/11/24 00:11:19;;;;;;;1999.90;999.90;;;13.10;99.90;;;;;;5070939;28;20499;-76
2022/11/24 00:13:46;;;;;;;1999.90;999.90;;;13.10;99.90;;;;;;5072554;28;20103;-79
2022/11/24 00:16:17;;;;;;;1999.90;999.90;;;13.20;99.90;;;;;;5072178;28;20020;-80
2022/11/24 00:18:45;;;;;;;1999.90;999.90;;;13.20;99.90;;;;;;5072351;28;20429;-75
2022/11/24 00:21:12;;;;;;;1999.90;999.90;;;13.20;99.90;;;;;;5067241;28;20040;-75
2022/11/24 00:23:38;;;;;;;1999.90;999.90;;;13.20;99.90;;;;;;5071492;28;20437;-76
2022/11/24 00:26:14;;;;;;;1999.90;999.90;;;13.20;99.90;;;;;;5072127;28;20040;-79
2022/11/24 00:28:41;;;;;;;1999.90;999.90;;;13.20;99.90;;;;;;5072128;28;20492;-76
2022/11/24 00:31:21;;;;;;;1999.90;999.90;;;13.30;99.90;;;;;;5072048;28;20025;-79
2022/11/24 00:33:49;;;;;;;1999.90;999.90;;;13.30;99.90;;;;;;5070990;28;20017;-75
2022/11/24 00:36:15;;;;;;;1999.90;999.90;;;13.30;99.90;;;;;;5072068;28;20062;-80
2022/11/24 00:38:42;;;;;;;1999.90;999.90;;;13.30;99.90;;;;;;5071776;28;20020;-83
2022/11/24 00:41:07;;;;;;;1999.90;999.90;;;13.30;99.90;;;;;;5067428;28;20033;-81
2022/11/24 00:43:33;;;;;;;1999.90;999.90;;;13.30;99.90;;;;;;5052209;28;20071;-76
2022/11/24 00:45:59;;;;;;;1999.90;999.90;;;13.40;99.90;;;;;;5070999;28;20036;-76
2022/11/24 00:48:24;;;;;;;1999.90;999.90;;;13.40;99.90;;;;;;5071955;28;20028;-80
2022/11/24 00:51:02;;;;;;;1999.90;999.90;;;13.50;99.90;;;;;;5071919;28;20179;-82
2022/11/24 00:53:28;;;;;;;1999.90;999.90;;;13.60;99.90;;;;;;5072014;28;20024;-76
2022/11/24 00:55:54;;;;;;;1999.90;999.90;;;13.70;99.90;;;;;;5072233;28;20087;-75
2022/11/24 00:58:21;;;;;;;1999.90;999.90;;;13.60;99.90;;;;;;5072206;28;20387;-76
2022/11/24 01:00:47;;;;;;;1999.90;999.90;;;13.70;99.90;;;;;;5071643;28;20399;-79
2022/11/24 01:03:14;;;;;;;1999.90;999.90;;;13.60;99.90;;;;;;5075531;28;20048;-75
2022/11/24 01:05:39;;;;;;;1999.90;999.90;;;13.60;99.90;;;;;;5076087;28;20101;-83
2022/11/24 01:08:06;;;;;;;1999.90;999.90;;;13.60;99.90;;;;;;5075746;28;20059;-74
2022/11/24 01:10:32;;;;;;;1999.90;999.90;;;13.60;99.90;;;;;;5075487;28;20040;-76
2022/11/24 01:12:58;;;;;;;1999.90;999.90;;;13.70;99.90;;;;;;5075534;28;20024;-75
2022/11/24 01:15:25;;;;;;;1999.90;999.90;;;13.60;99.90;;;;;;5075647;28;20020;-78
2022/11/24 01:17:51;;;;;;;1999.90;999.90;;;13.60;99.90;;;;;;5075096;28;20543;-75
2022/11/24 01:20:17;;;;;;;1999.90;999.90;;;13.60;99.90;;;;;;5070535;28;20099;-79
2022/11/24 01:22:42;;;;;;;1999.90;999.90;;;13.60;99.90;;;;;;5074924;28;20039;-75
2022/11/24 01:25:10;;;;;;;1999.90;999.90;;;13.60;99.90;;;;;;5074413;28;20407;-79
2022/11/24 01:27:37;;;;;;;1999.90;999.90;;;13.70;99.90;;;;;;5075573;28;20469;-75
2022/11/24 01:30:04;;;;;;;1999.90;999.90;;;13.70;99.90;;;;;;5075168;28;20025;-78
2022/11/24 01:32:32;;;;;;;1999.90;999.90;;;13.80;99.90;;;;;;5074857;28;20055;-75
2022/11/24 01:34:58;;;;;;;1999.90;999.90;;;13.90;99.90;;;;;;5075167;28;20016;-75
2022/11/24 01:37:24;;;;;;;1999.90;999.90;;;13.90;99.90;;;;;;5075115;28;20016;-76
2022/11/24 01:39:50;;;;;;;1999.90;999.90;;;13.80;99.90;;;;;;5073656;28;20017;-76
2022/11/24 01:42:16;;;;;;;1999.90;999.90;;;13.80;99.90;;;;;;5074963;28;20021;-81
2022/11/24 01:44:42;;;;;;;1999.90;999.90;;;13.80;99.90;;;;;;5084095;28;20020;-80
2022/11/24 01:47:26;;;;;;;1999.90;999.90;;;13.80;99.90;;;;;;5095205;28;20028;-75
2022/11/24 01:49:57;;;;;;;1999.90;999.90;;;13.80;99.90;;;;;;5095370;28;20016;-75
2022/11/24 01:52:33;;;;;;;1999.90;999.90;;;13.80;99.90;;;;;;5095544;28;20066;-78
2022/11/24 01:55:14;;;;;;;1999.90;999.90;;;13.80;99.90;;;;;;5095040;28;20395;-79
2022/11/24 01:57:46;;;;;;;1999.90;999.90;;;13.90;99.90;;;;;;5095307;28;20054;-81
2022/11/24 02:00:13;;;;;;;1999.90;999.90;;;13.80;99.90;;;;;;5095183;28;20149;-83
2022/11/24 02:02:41;;;;;;;1999.90;999.90;;;13.80;99.90;;;;;;5082441;28;20178;-75
2022/11/24 02:05:34;;;;;;;1999.90;999.90;;;13.80;99.90;;;;;;5075010;28;20027;-80
2022/11/24 02:08:01;;;;;;;1999.90;999.90;;;13.80;99.90;;;;;;5074628;28;20036;-77
2022/11/24 02:10:27;;;;;;;1999.90;999.90;;;13.80;99.90;;;;;;5072962;28;20032;-81
2022/11/24 02:12:56;;;;;;;1999.90;999.90;;;13.80;99.90;;;;;;5073171;28;20078;-74
2022/11/24 02:15:23;;;;;;;1999.90;999.90;;;13.70;99.90;;;;;;5074300;28;20021;-80
2022/11/24 02:17:48;;;;;;;1999.90;999.90;;;13.60;99.90;;;;;;5074677;28;20059;-75
2022/11/24 02:20:15;;;;;;;1999.90;999.90;;;13.60;99.90;;;;;;5069530;28;20204;-80
2022/11/24 02:23:06;;;;;;;1999.90;999.90;;;13.50;99.90;;;;;;5074212;28;20028;-79
2022/11/24 02:25:53;;;;;;;1999.90;999.90;;;13.50;99.90;;;;;;5073597;28;20483;-79
2022/11/24 02:28:22;;;;;;;1999.90;999.90;;;13.50;99.90;;;;;;5074151;28;20029;-82
2022/11/24 02:30:49;;;;;;;1999.90;999.90;;;13.60;99.90;;;;;;5074057;28;20019;-75
2022/11/24 02:33:15;;;;;;;1999.90;999.90;;;13.60;99.90;;;;;;5074299;28;20025;-80
2022/11/24 02:35:41;;;;;;;1999.90;999.90;;;13.70;99.90;;;;;;5077683;28;20013;-79
2022/11/24 02:38:12;;;;;;;1999.90;999.90;;;13.40;99.90;;;;;;5074813;28;20482;-79
2022/11/24 02:40:42;;;;;;;1999.90;999.90;;;13.10;99.90;;;;;;5073320;28;20028;-73
2022/11/24 02:43:12;;;;;;;1999.90;999.90;;;13.00;99.90;;;;;;5054021;28;20086;-73
2022/11/24 02:45:38;;;;;;;1999.90;999.90;;;12.80;99.90;;;;;;5087728;28;20028;-82
2022/11/24 02:48:04;;;;;;;1999.90;999.90;;;12.70;99.90;;;;;;5094191;28;20040;-82
2022/11/24 02:50:30;;;;;;;1999.90;999.90;;;12.80;99.90;;;;;;5093805;28;20059;-81
2022/11/24 02:52:55;;;;;;;1999.90;999.90;;;12.80;99.90;;;;;;5092690;28;20491;-74
2022/11/24 02:55:22;;;;;;;1999.90;999.90;;;12.80;99.90;;;;;;5093768;28;20073;-74
2022/11/24 02:57:48;;;;;;;1999.90;999.90;;;12.90;99.90;;;;;;5094100;28;20020;-80
2022/11/24 03:00:14;;;;;;;1999.90;999.90;;;12.90;99.90;;;;;;5094029;28;20491;-81
2022/11/24 03:02:40;;;;;;;1999.90;999.90;;;13.10;99.90;;;;;;5081218;28;20079;-81
2022/11/24 03:05:06;;;;;;;1999.90;999.90;;;13.20;99.90;;;;;;5073542;28;20475;-80
2022/11/24 03:07:32;;;;;;;1999.90;999.90;;;13.20;99.90;;;;;;5073821;28;20484;-75
2022/11/24 03:09:57;;;;;;;1999.90;999.90;;;13.20;99.90;;;;;;5073097;28;20032;-75
2022/11/24 03:12:23;;;;;;;1999.90;999.90;;;13.10;99.90;;;;;;5073519;28;20025;-80
2022/11/24 03:14:48;;;;;;;1999.90;999.90;;;13.10;99.90;;;;;;5073295;28;20024;-74
2022/11/24 03:17:14;;;;;;;1999.90;999.90;;;13.10;99.90;;;;;;5073340;28;20025;-81
2022/11/24 03:19:40;;;;;;;1999.90;999.90;;;13.10;99.90;;;;;;5065644;28;20116;-75
2022/11/24 03:22:05;;;;;;;1999.90;999.90;;;13.10;99.90;;;;;;5073079;28;20479;-75
2022/11/24 03:24:31;;;;;;;1999.90;999.90;;;13.10;99.90;;;;;;5071620;28;20024;-75
2022/11/24 03:26:57;;;;;;;1999.90;999.90;;;13.20;99.90;;;;;;5073151;28;20483;-81
2022/11/24 03:29:23;;;;;;;1999.90;999.90;;;13.10;99.90;;;;;;5073220;28;20024;-80
2022/11/24 03:31:48;;;;;;;1999.90;999.90;;;13.10;99.90;;;;;;5073177;28;20377;-75
2022/11/24 03:34:14;;;;;;;1999.90;999.90;;;13.10;99.90;;;;;;5073252;28;20380;-75
2022/11/24 03:36:40;;;;;;;1999.90;999.90;;;13.20;99.90;;;;;;5072937;28;20025;-85
2022/11/24 03:39:06;;;;;;;1999.90;999.90;;;13.20;99.90;;;;;;5072639;28;20543;-75
2022/11/24 03:41:31;;;;;;;1999.90;999.90;;;13.30;99.90;;;;;;5065198;28;20027;-75
2022/11/24 03:43:57;;;;;;;1999.90;999.90;;;13.30;99.90;;;;;;5058215;28;20025;-80
2022/11/24 03:46:23;;;;;;;1999.90;999.90;;;13.30;99.90;;;;;;5092931;28;20035;-79
2022/11/24 03:48:48;;;;;;;1999.90;999.90;;;13.30;99.90;;;;;;5092790;28;20078;-76
2022/11/24 03:51:14;;;;;;;1999.90;999.90;;;13.30;99.90;;;;;;5092767;28;20027;-75
2022/11/24 03:53:40;;;;;;;1999.90;999.90;;;13.30;99.90;;;;;;5092999;28;20039;-79
2022/11/24 03:56:06;;;;;;;1999.90;999.90;;;13.20;99.90;;;;;;5093092;28;20024;-75
2022/11/24 03:58:32;;;;;;;1999.90;999.90;;;13.00;99.90;;;;;;5092689;28;20390;-76
2022/11/24 04:00:58;;;;;;;1999.90;999.90;;;12.90;99.90;;;;;;5092775;28;20084;-75
2022/11/24 04:03:24;;;;;;;1999.90;999.90;;;12.80;99.90;;;;;;5074090;28;20523;-79
2022/11/24 04:05:50;;;;;;;1999.90;999.90;;;12.70;99.90;;;;;;5072779;28;20024;-79
2022/11/24 04:08:16;;;;;;;1999.90;999.90;;;12.80;99.90;;;;;;5072240;28;20040;-75
2022/11/24 04:10:42;;;;;;;1999.90;999.90;;;12.70;99.90;;;;;;5071477;28;20028;-75
2022/11/24 04:13:14;;;;;;;1999.90;999.90;;;12.70;99.90;;;;;;5072281;28;20032;-75
2022/11/24 04:15:41;;;;;;;1999.90;999.90;;;12.70;99.90;;;;;;5072678;28;20017;-75
2022/11/24 04:18:08;;;;;;;1999.90;999.90;;;12.60;99.90;;;;;;5071767;28;20013;-75
2022/11/24 04:20:34;;;;;;;1999.90;999.90;;;12.70;99.90;;;;;;5067752;28;20078;-79
2022/11/24 04:22:59;;;;;;;1999.90;999.90;;;12.70;99.90;;;;;;5072355;28;20032;-75
2022/11/24 04:25:25;;;;;;;1999.90;999.90;;;12.60;99.90;;;;;;5071294;28;20035;-76
2022/11/24 04:27:52;;;;;;;1999.90;999.90;;;12.50;99.90;;;;;;5072550;28;20475;-75
2022/11/24 04:30:19;;;;;;;1999.90;999.90;;;12.50;99.90;;;;;;5071925;28;20025;-79
2022/11/24 04:32:45;;;;;;;1999.90;999.90;;;12.50;99.90;;;;;;5072248;28;20021;-78
2022/11/24 04:35:11;;;;;;;1999.90;999.90;;;12.50;99.90;;;;;;5071409;28;20047;-75
2022/11/24 04:37:36;;;;;;;1999.90;999.90;;;12.60;99.90;;;;;;5072408;28;20031;-75
2022/11/24 04:40:04;;;;;;;1999.90;999.90;;;12.60;99.90;;;;;;5071914;28;20484;-75
2022/11/24 04:42:29;;;;;;;1999.90;999.90;;;12.60;99.90;;;;;;5056069;28;20029;-75
2022/11/24 04:44:55;;;;;;;1999.90;999.90;;;12.50;99.90;;;;;;5061236;28;20059;-75
2022/11/24 04:47:22;;;;;;;1999.90;999.90;;;12.50;99.90;;;;;;5072063;28;20021;-75
2022/11/24 04:49:49;;;;;;;1999.90;999.90;;;12.40;99.90;;;;;;5072246;28;20020;-75
2022/11/24 04:52:16;;;;;;;1999.90;999.90;;;12.40;99.90;;;;;;5072498;28;20063;-75
2022/11/24 04:54:42;;;;;;;1999.90;999.90;;;12.40;99.90;;;;;;5072076;28;20052;-75
2022/11/24 04:57:15;;;;;;;1999.90;999.90;;;12.30;99.90;;;;;;5071901;28;20534;-79
2022/11/24 04:59:41;;;;;;;1999.90;999.90;;;12.30;99.90;;;;;;5072274;28;20029;-78
2022/11/24 05:02:08;;;;;;;1999.90;999.90;;;12.30;99.90;;;;;;5071962;28;20103;-75
2022/11/24 05:04:33;;;;;;;1999.90;999.90;;;12.20;99.90;;;;;;5068116;28;20029;-75
2022/11/24 05:06:59;;;;;;;1999.90;999.90;;;12.20;99.90;;;;;;5071897;28;20078;-75
2022/11/24 05:09:25;;;;;;;1999.90;999.90;;;12.20;99.90;;;;;;5071510;28;20033;-75
2022/11/24 05:11:50;;;;;;;1999.90;999.90;;;12.10;99.90;;;;;;5071647;28;20028;-78
2022/11/24 05:14:16;;;;;;;1999.90;999.90;;;12.10;99.90;;;;;;5071320;28;20020;-78
2022/11/24 05:16:41;;;;;;;1999.90;999.90;;;12.10;99.90;;;;;;5071533;28;20036;-75
2022/11/24 05:19:07;;;;;;;1999.90;999.90;;;12.10;99.90;;;;;;5071092;28;20031;-77
2022/11/24 05:21:33;;;;;;;1999.90;999.90;;;12.00;99.90;;;;;;5066476;28;20522;-79
2022/11/24 05:23:58;;;;;;;1999.90;999.90;;;12.00;99.90;;;;;;5071432;28;20037;-75
2022/11/24 05:26:25;;;;;;;1999.90;999.90;;;12.00;99.90;;;;;;5070593;28;20032;-79
2022/11/24 05:28:51;;;;;;;1999.90;999.90;;;12.10;99.90;;;;;;5071501;28;20488;-75
2022/11/24 05:31:16;;;;;;;1999.90;999.90;;;12.10;99.90;;;;;;5071500;28;20029;-75
2022/11/24 05:33:42;;;;;;;1999.90;999.90;;;12.10;99.90;;;;;;5071745;28;20045;-78
2022/11/24 05:36:51;;;;;;;1999.90;999.90;;;12.10;99.90;;;;;;5071665;28;20096;-75
2022/11/24 05:38:54;;;;;;;1999.90;999.90;;;12.10;99.90;;;;;;5071209;28;20024;-78
2022/11/24 05:41:20;;;;;;;1999.90;999.90;;;12.10;99.90;;;;;;5071258;28;20104;-78
2022/11/24 05:43:45;;;;;;;1999.90;999.90;;;12.00;99.90;;;;;;5072831;28;20095;-75
2022/11/24 05:46:11;;;;;;;1999.90;999.90;;;12.00;99.90;;;;;;5091274;28;20028;-75
2022/11/24 05:48:36;;;;;;;1999.90;999.90;;;12.00;99.90;;;;;;5095252;28;20027;-75
2022/11/24 05:51:02;;;;;;;1999.90;999.90;;;12.00;99.90;;;;;;5095408;28;20032;-79
2022/11/24 05:53:28;;;;;;;1999.90;999.90;;;11.90;99.90;;;;;;5080756;28;20020;-75
2022/11/24 05:55:53;;;;;;;1999.90;999.90;;;11.90;99.90;;;;;;5075232;28;20057;-75
2022/11/24 05:58:19;;;;;;;1999.90;999.90;;;11.90;99.90;;;;;;5073369;28;20025;-75
2022/11/24 06:00:45;;;;;;;1999.90;999.90;;;11.90;99.90;;;;;;5074647;28;20028;-79
2022/11/24 06:03:11;;;;;;;1999.90;999.90;;;11.90;99.90;;;;;;5074356;28;20392;-79
2022/11/24 06:05:37;;;;;;;1999.90;999.90;;;11.90;99.90;;;;;;5074964;28;20031;-75
2022/11/24 06:08:02;;;;;;;1999.90;999.90;;;11.90;99.90;;;;;;5074990;28;20390;-75
2022/11/24 06:10:28;;;;;;;1999.90;999.90;;;11.90;99.90;;;;;;5073824;28;20074;-75
2022/11/24 06:12:54;;;;;;;1999.90;999.90;;;11.80;99.90;;;;;;5073621;28;20431;-79
2022/11/24 06:15:20;;;;;;;1999.90;999.90;;;11.70;99.90;;;;;;5074402;28;20036;-75
2022/11/24 06:17:53;;;;;;;1999.90;999.90;;;11.70;99.90;;;;;;5075102;28;20103;-75
2022/11/24 06:20:19;;;;;;;1999.90;999.90;;;11.60;99.90;;;;;;5074512;28;20103;-79
2022/11/24 06:22:45;;;;;;;1999.90;999.90;;;11.50;99.90;;;;;;5073939;28;20067;-75
2022/11/24 06:25:10;;;;;;;1999.90;999.90;;;11.50;99.90;;;;;;5074060;28;20468;-78
2022/11/24 06:27:36;;;;;;;1999.90;999.90;;;11.50;99.90;;;;;;5073817;28;20028;-81
2022/11/24 06:30:02;;;;;;;1999.90;999.90;;;11.50;99.90;;;;;;5074455;28;20032;-75
2022/11/24 06:32:28;;;;;;;1999.90;999.90;;;11.40;99.90;;;;;;5074118;28;20077;-75
2022/11/24 06:34:54;;;;;;;1999.90;999.90;;;11.40;99.90;;;;;;5074032;28;20527;-75
2022/11/24 06:37:19;;;;;;;1999.90;999.90;;;11.40;99.90;;;;;;5055364;28;20060;-75
2022/11/24 06:39:45;;;;;;;1999.90;999.90;;;11.40;99.90;;;;;;5054499;28;20483;-79
2022/11/24 06:42:10;;;;;;;1999.90;999.90;;;11.40;99.90;;;;;;5072473;28;20043;-79
2022/11/24 06:44:36;;;;;;;1999.90;999.90;;;11.40;99.90;;;;;;5081824;28;20032;-78
2022/11/24 06:47:02;;;;;;;1999.90;999.90;;;11.30;99.90;;;;;;5093620;28;20047;-74
2022/11/24 06:49:27;;;;;;;1999.90;999.90;;;11.30;99.90;;;;;;5092551;28;20556;-75
2022/11/24 06:51:56;;;;;;;1999.90;999.90;;;11.20;99.90;;;;;;5082549;28;20063;-78
2022/11/24 06:54:21;;;;;;;1999.90;999.90;;;11.20;99.90;;;;;;5082716;28;20020;-78
2022/11/24 06:56:47;;;;;;;1999.90;999.90;;;11.20;99.90;;;;;;5068935;28;20047;-78
2022/11/24 06:59:17;;;;;;;1999.90;999.90;;;11.10;99.90;;;;;;5072895;28;20475;-78
2022/11/24 07:01:43;;;;;;;1999.90;999.90;;;11.00;99.90;;;;;;5070765;28;20074;-74
2022/11/24 07:04:10;;;;;;;1999.90;999.90;;;10.90;99.90;;;;;;5072741;28;20499;-75
2022/11/24 07:06:35;;;;;;;1999.90;999.90;;;10.90;99.90;;;;;;5072974;28;20049;-78
2022/11/24 07:09:01;;;;;;;1999.90;999.90;;;10.90;99.90;;;;;;5072724;28;20032;-74
2022/11/24 07:11:27;;;;;;;1999.90;999.90;;;10.90;99.90;;;;;;5071342;28;20028;-78
2022/11/24 07:13:52;;;;;;;1999.90;999.90;;;10.90;99.90;;;;;;5072934;28;20035;-75
2022/11/24 07:16:24;;;;;;;1999.90;999.90;;;10.90;99.90;;;;;;5072129;28;20470;-75
2022/11/24 07:18:51;;;;;;;1999.90;999.90;;;10.90;99.90;;;;;;5065588;28;20013;-75
2022/11/24 07:21:19;;;;;;;1999.90;999.90;;;10.80;99.90;;;;;;5065886;28;20033;-74
2022/11/24 07:23:48;;;;;;;1999.90;999.90;;;10.80;99.90;;;;;;5067856;28;20060;-79
2022/11/24 07:26:14;;;;;;;1999.90;999.90;;;10.70;99.90;;;;;;5071470;28;20480;-74
2022/11/24 07:28:40;;;;;;;1999.90;999.90;;;10.70;99.90;;;;;;5070397;28;20032;-74
2022/11/24 07:31:07;;;;;;;1999.90;999.90;;;10.70;99.90;;;;;;5070576;28;20572;-74
2022/11/24 07:33:33;;;;;;;1999.90;999.90;;;10.60;99.90;;;;;;5070681;28;20031;-79
2022/11/24 07:35:59;;;;;;;1999.90;999.90;;;10.60;99.90;;;;;;5071272;28;20016;-78
2022/11/24 07:38:25;;;;;;;1999.90;999.90;;;10.60;99.90;;;;;;5074523;28;20089;-77
2022/11/24 07:40:51;;;;;;;1999.90;999.90;;;10.60;99.90;;;;;;5115008;27;20598;-75
2022/11/24 07:43:16;;;;;;;1999.90;999.90;;;10.60;99.90;;;;;;5071426;28;20031;-78
2022/11/24 07:45:42;;;;;;;1999.90;999.90;;;10.50;99.90;;;;;;5083008;28;20112;-79
2022/11/24 07:48:09;;;;;;;1999.90;999.90;;;10.50;99.90;;;;;;5070846;28;20030;-78
2022/11/24 07:50:34;;;;;;;1999.90;999.90;;;10.50;99.90;;;;;;5063813;28;20067;-78
2022/11/24 07:53:02;;;;;;;1999.90;999.90;;;10.50;99.90;;;;;;5070336;28;20060;-76
2022/11/24 07:55:27;;;;;;;1999.90;999.90;;;10.60;99.90;;;;;;5067603;28;20096;-75
2022/11/24 07:57:53;;;;;;;1999.90;999.90;;;10.60;99.90;;;;;;5068226;28;20108;-78
2022/11/24 08:00:20;;;;;;;1999.90;999.90;;;10.70;99.90;;;;;;5070995;28;20032;-78
2022/11/24 08:02:46;;;;;;;1999.90;999.90;;;10.70;99.90;;;;;;5073388;28;20045;-78
2022/11/24 08:05:11;;;;;;;1999.90;999.90;;;10.80;99.90;;;;;;5068550;28;20024;-75
2022/11/24 08:07:39;;;;;;;1999.90;999.90;;;10.80;99.90;;;;;;5065293;28;20119;-75
2022/11/24 08:10:05;;;;;;;1999.90;999.90;;;10.90;99.90;;;;;;5061968;28;20493;-79
2022/11/24 08:12:31;;;;;;;1999.90;999.90;;;10.90;99.90;;;;;;5073146;28;20143;-78
2022/11/24 08:14:57;;;;;;;1999.90;999.90;;;11.00;99.90;;;;;;5069245;28;20119;-78
2022/11/24 08:17:22;;;;;;;1999.90;999.90;;;11.00;99.90;;;;;;5075823;28;20115;-75
2022/11/24 08:19:48;;;;;;;1999.90;999.90;;;11.00;99.90;;;;;;5057204;28;20111;-74
2022/11/24 08:22:13;;;;;;;1999.90;999.90;;;11.00;99.90;;;;;;5059443;28;20033;-75
2022/11/24 08:24:45;;;;;;;1999.90;999.90;;;11.00;99.90;;;;;;5061996;28;20041;-78
2022/11/24 08:27:11;;;;;;;1999.90;999.90;;;11.10;99.90;;;;;;5058204;28;20108;-78
2022/11/24 08:29:36;;;;;;;1999.90;999.90;;;11.10;99.90;;;;;;5067436;28;20081;-78
2022/11/24 08:32:02;;;;;;;1999.90;999.90;;;11.10;99.90;;;;;;5093624;27;20025;-74
2022/11/24 08:34:28;;;;;;;1999.90;999.90;;;11.10;99.90;;;;;;5062218;28;20032;-74
2022/11/24 08:36:54;;;;;;;1999.90;999.90;;;11.20;99.90;;;;;;5066728;28;20070;-78
2022/11/24 08:39:19;;;;;;;1999.90;999.90;;;11.10;99.90;;;;;;5066891;28;20411;-78
2022/11/24 08:41:45;;;;;;;1999.90;999.90;;;11.20;99.90;;;;;;5065166;28;20446;-78
2022/11/24 08:44:14;;;;;;;1999.90;999.90;;;11.30;99.90;;;;;;5075030;28;20120;-74
2022/11/24 08:46:40;;;;;;;1999.90;999.90;;;11.30;99.90;;;;;;5061041;28;20025;-74
2022/11/24 08:49:07;;;;;;;1999.90;999.90;;;11.30;99.90;;;;;;5068537;28;20032;-75
2022/11/24 08:51:32;;;;;;;1999.90;999.90;;;11.30;99.90;;;;;;5064709;28;20036;-78
2022/11/24 08:54:00;;;;;;;1999.90;999.90;;;11.30;99.90;;;;;;5058256;28;20503;-78
2022/11/24 08:56:28;;;;;;;1999.90;999.90;;;11.30;99.90;;;;;;5058106;28;20036;-78
2022/11/24 08:58:54;;;;;;;1999.90;999.90;;;11.40;99.90;;;;;;5066141;28;20036;-75
2022/11/24 09:01:20;;;;;;;1999.90;999.90;;;11.40;99.90;;;;;;5053639;28;20047;-78
2022/11/24 09:03:48;;;;;;;1999.90;999.90;;;11.50;99.90;;;;;;5086185;28;20067;-78
2022/11/24 09:06:14;;;;;;;1999.90;999.90;;;11.50;99.90;;;;;;5069559;28;20032;-78
2022/11/24 09:08:40;;;;;;;1999.90;999.90;;;11.50;99.90;;;;;;5062909;28;20400;-75
2022/11/24 09:11:12;;;;;;;1999.90;999.90;;;11.60;99.90;;;;;;5053252;28;20028;-75
2022/11/24 09:13:40;;;;;;;1999.90;999.90;;;11.60;99.90;;;;;;5062542;28;20029;-74
2022/11/24 09:16:09;;;;;;;1999.90;999.90;;;11.70;99.90;;;;;;5066601;28;20046;-78
2022/11/24 09:18:36;;;;;;;1999.90;999.90;;;11.70;99.90;;;;;;5064383;28;20043;-78
2022/11/24 09:21:09;;;;;;;1999.90;999.90;;;11.80;99.90;;;;;;5066410;28;20126;-78
2022/11/24 09:23:35;;;;;;;1999.90;999.90;;;11.80;99.90;;;;;;5067541;28;20036;-75
2022/11/24 09:26:06;;;;;;;1999.90;999.90;;;12.00;99.90;;;;;;5068163;28;20158;-75
2022/11/24 09:28:32;;;;;;;1999.90;999.90;;;12.00;99.90;;;;;;5071514;28;20051;-78
2022/11/24 09:31:02;;;;;;;1999.90;999.90;;;12.10;99.90;;;;;;5074032;28;20033;-75
2022/11/24 09:33:29;;;;;;;1999.90;999.90;;;12.10;99.90;;;;;;5080816;28;20431;-79
2022/11/24 09:35:55;;;;;;;1999.90;999.90;;;12.20;99.90;;;;;;5072775;28;20090;-75
2022/11/24 09:38:21;;;;;;;1999.90;999.90;;;12.20;99.90;;;;;;5077992;28;20029;-75
2022/11/24 09:40:47;;;;;;;1999.90;999.90;;;12.30;99.90;;;;;;5072182;28;20558;-79
2022/11/24 09:43:18;;;;;;;1999.90;999.90;;;12.30;99.90;;;;;;5073391;28;20037;-78
2022/11/24 09:45:53;;;;;;;1999.90;999.90;;;12.30;99.90;;;;;;5071457;28;20024;-76
2022/11/24 09:48:28;;;;;;;1999.90;999.90;;;12.30;99.90;;;;;;5070384;28;20051;-79
2022/11/24 09:51:01;;;;;;;1999.90;999.90;;;12.40;99.90;;;;;;5070148;28;20513;-75
2022/11/24 09:53:36;;;;;;;1999.90;999.90;;;12.50;99.90;;;;;;5074565;28;20411;-75
2022/11/24 09:56:22;;;;;;;1999.90;999.90;;;12.60;99.90;;;;;;5072834;28;20321;-76
2022/11/24 09:58:59;;;;;;;1999.90;999.90;;;12.70;99.90;;;;;;5075295;28;20021;-79
2022/11/24 10:01:33;;;;;;;1999.90;999.90;;;12.70;99.90;;;;;;5071220;28;20047;-78
2022/11/24 10:04:00;;;;;;;1999.90;999.90;;;12.80;99.90;;;;;;5071632;28;20052;-75
2022/11/24 10:06:30;;;;;;;1999.90;999.90;;;12.90;99.90;;;;;;5070004;28;20043;-75
2022/11/24 10:09:20;;;;;;;1999.90;999.90;;;12.90;99.90;;;;;;5077523;28;20055;-78
2022/11/24 10:12:06;;;;;;;1999.90;999.90;;;12.90;99.90;;;;;;5070770;28;20071;-75
2022/11/24 10:14:35;;;;;;;1999.90;999.90;;;13.00;99.90;;;;;;5072237;28;20419;-75
2022/11/24 10:17:20;;;;;;;1999.90;999.90;;;13.00;99.90;;;;;;5065643;28;20029;-75
2022/11/24 10:20:12;;;;;;;1999.90;999.90;;;13.10;99.90;;;;;;5069818;28;20051;-78
2022/11/24 10:22:44;;;;;;;1999.90;999.90;;;13.10;99.90;;;;;;5070543;28;20016;-75
2022/11/24 10:25:28;;;;;;;1999.90;999.90;;;13.00;99.90;;;;;;5071028;28;20024;-78
2022/11/24 10:28:02;;;;;;;1999.90;999.90;;;12.90;99.90;;;;;;5067743;28;20478;-75
2022/11/24 10:30:28;;;;;;;1999.90;999.90;;;12.80;99.90;;;;;;5064123;28;20549;-75
2022/11/24 10:32:56;;;;;;;1999.90;999.90;;;12.90;99.90;;;;;;5067933;28;20174;-77
2022/11/24 10:35:33;;;;;;;1999.90;999.90;;;12.90;99.90;;;;;;5073533;28;20028;-79
2022/11/24 10:38:20;;;;;;;1999.90;999.90;;;12.80;99.90;;;;;;5093030;27;20024;-74
2022/11/24 10:41:00;;;;;;;1999.90;999.90;;;12.80;99.90;;;;;;5065124;28;20079;-76
2022/11/24 10:43:27;;;;;;;1999.90;999.90;;;12.90;99.90;;;;;;5064054;28;20032;-77
2022/11/24 10:46:15;;;;;;;1999.90;999.90;;;12.90;99.90;;;;;;5067852;28;20028;-76
2022/11/24 10:48:56;;;;;;;1999.90;999.90;;;13.00;99.90;;;;;;5070086;28;20040;-79
2022/11/24 10:51:38;;;;;;;1999.90;999.90;;;13.00;99.90;;;;;;5061922;28;20555;-76
2022/11/24 10:54:24;;;;;;;1999.90;999.90;;;13.10;99.90;;;;;;5064520;28;20322;-75
2022/11/24 10:56:52;;;;;;;1999.90;999.90;;;13.20;99.90;;;;;;5061135;28;20025;-77
2022/11/24 10:59:24;;;;;;;1999.90;999.90;;;13.20;99.90;;;;;;5078052;28;20104;-75
2022/11/24 11:01:53;;;;;;;1999.90;999.90;;;13.20;99.90;;;;;;5071733;28;20028;-78
2022/11/24 11:04:23;;;;;;;1999.90;999.90;;;13.20;99.90;;;;;;5067650;28;20048;-78
2022/11/24 11:06:49;;;;;;;1999.90;999.90;;;13.10;99.90;;;;;;5072432;28;20058;-73
2022/11/24 11:09:20;;;;;;;1999.90;999.90;;;13.10;99.90;;;;;;5070588;28;20139;-72
2022/11/24 11:11:47;;;;;;;1999.90;999.90;;;13.10;99.90;;;;;;5069875;28;20032;-78
2022/11/24 11:14:34;;;;;;;1999.90;999.90;;;13.00;99.90;;;;;;5070055;28;20024;-79
2022/11/24 11:17:00;;;;;;;1999.90;999.90;;;13.00;99.90;;;;;;5069903;28;20025;-79
2022/11/24 11:19:37;;;;;;;1999.90;999.90;;;13.00;99.90;;;;;;5064382;28;20620;-74
2022/11/24 11:22:18;;;;;;;1999.90;999.90;;;13.10;99.90;;;;;;5067340;28;20041;-75
2022/11/24 11:24:46;;;;;;;1999.90;999.90;;;13.20;99.90;;;;;;5068896;28;20047;-79
2022/11/24 11:27:21;;;;;;;1999.90;999.90;;;13.20;99.90;;;;;;5068955;28;20541;-81
2022/11/24 11:29:47;;;;;;;1999.90;999.90;;;13.20;99.90;;;;;;5068674;28;20036;-81
2022/11/24 11:32:19;;;;;;;1999.90;999.90;;;13.30;99.90;;;;;;5068271;28;20540;-79
2022/11/24 11:34:45;;;;;;;1999.90;999.90;;;13.30;99.90;;;;;;5069942;28;20040;-75
2022/11/24 11:37:13;;;;;;;1999.90;999.90;;;13.40;99.90;;;;;;5070421;28;20020;-75
2022/11/24 11:39:41;;;;;;;1999.90;999.90;;;13.40;99.90;;;;;;5068040;28;20079;-79
2022/11/24 11:42:21;;;;;;;1999.90;999.90;;;13.40;99.90;;;;;;5065753;28;20028;-76
2022/11/24 11:45:12;;;;;;;1999.90;999.90;;;13.40;99.90;;;;;;5065896;28;20024;-79
2022/11/24 11:48:15;;;;;;;1999.90;999.90;;;13.50;99.90;;;;;;5069865;28;20115;-76
2022/11/24 11:50:48;;;;;;;1999.90;999.90;;;13.40;99.90;;;;;;5073228;28;20031;-74
2022/11/24 11:53:14;;;;;;;;;;;13.40;99.90;;;;;;5072057;28;20150;-79
2022/11/24 11:55:39;;;;;;;1999.90;999.90;;;13.40;99.90;;;;;;5069723;28;19916;-79
2022/11/24 11:58:32;;;;;;;1999.90;999.90;;;13.40;99.90;;;;;;5070192;28;20029;-79
2022/11/24 12:01:19;;;;;;;1999.90;999.90;;;13.50;99.90;;;;;;5056297;28;20021;-75
2022/11/24 12:03:54;;;;;;;1999.90;999.90;;;13.40;99.90;;;;;;5062794;28;20083;-75
2022/11/24 12:06:47;;;;;;;1999.90;999.90;;;13.50;99.90;;;;;;5066776;28;20386;-78